createdAt,value
2018-12-04T00:00:52.230Z,1.98
2018-12-04T00:03:21.810Z,2.45
2018-12-04T00:05:52.110Z,2.00
2018-12-04T00:08:22.616Z,2.08
2018-12-04T00:10:53.330Z,2.05
2018-12-04T00:13:23.005Z,2.12
2018-12-04T00:15:51.611Z,2.15
2018-12-04T00:18:20.418Z,2.12
2018-12-04T00:20:49.241Z,1.87
2018-12-04T00:23:17.275Z,2.47
2018-12-04T00:25:47.282Z,2.50
2018-12-04T00:28:17.597Z,2.53
2018-12-04T00:30:45.718Z,1.98
2018-12-04T00:33:16.682Z,2.20
2018-12-04T00:35:45.420Z,2.25
2018-12-04T00:38:15.855Z,2.20
2018-12-04T00:40:44.545Z,2.10
2018-12-04T00:43:13.158Z,2.33
2018-12-04T00:45:43.517Z,2.70
2018-12-04T00:48:13.131Z,2.00
2018-12-04T00:50:41.178Z,1.98
2018-12-04T00:53:11.264Z,2.45
2018-12-04T00:55:43.974Z,2.55
2018-12-04T00:58:12.756Z,2.12
2018-12-04T01:00:40.979Z,2.03
2018-12-04T01:03:15.352Z,2.53
2018-12-04T01:05:44.013Z,1.90
2018-12-04T01:08:12.912Z,1.70
2018-12-04T01:10:41.571Z,1.55
2018-12-04T01:13:10.439Z,2.20
2018-12-04T01:15:39.122Z,2.30
2018-12-04T01:18:09.156Z,1.80
2018-12-04T01:20:38.564Z,1.80
2018-12-04T01:23:07.811Z,1.85
2018-12-04T01:25:38.364Z,1.80
2018-12-04T01:28:08.145Z,2.08
2018-12-04T01:30:36.367Z,2.65
2018-12-04T01:33:06.414Z,1.40
2018-12-04T01:35:34.271Z,2.25
2018-12-04T01:38:03.106Z,3.08
2018-12-04T01:40:31.489Z,1.30
2018-12-04T01:43:01.503Z,2.37
2018-12-04T01:45:30.997Z,1.90
2018-12-04T01:48:00.797Z,1.80
2018-12-04T01:50:29.643Z,1.83
2018-12-04T01:53:00.347Z,2.62
2018-12-04T01:55:30.763Z,1.45
2018-12-04T01:58:01.463Z,1.92
2018-12-04T02:00:31.352Z,2.05
2018-12-04T02:03:01.959Z,1.58
2018-12-04T02:05:32.764Z,1.75
2018-12-04T02:08:01.049Z,2.35
2018-12-04T02:10:30.594Z,1.77
2018-12-04T02:12:58.397Z,2.28
2018-12-04T02:15:26.476Z,1.83
2018-12-04T02:17:56.252Z,1.70
2018-12-04T02:20:28.017Z,2.58
2018-12-04T02:22:56.646Z,2.47
2018-12-04T02:25:26.642Z,2.03
2018-12-04T02:27:56.444Z,2.17
2018-12-04T02:30:24.474Z,1.83
2018-12-04T02:32:56.515Z,2.70
2018-12-04T02:35:24.413Z,1.95
2018-12-04T02:37:54.920Z,2.47
2018-12-04T02:40:23.507Z,1.98
2018-12-04T02:42:55.603Z,2.00
2018-12-04T02:45:26.469Z,1.75
2018-12-04T02:47:55.194Z,1.52
2018-12-04T02:50:25.504Z,1.65
2018-12-04T02:52:57.677Z,1.50
2018-12-04T02:55:26.840Z,2.28
2018-12-04T02:57:57.391Z,2.00
2018-12-04T03:00:26.041Z,1.85
2018-12-04T03:02:54.779Z,1.87
2018-12-04T03:05:24.286Z,1.35
2018-12-04T03:07:56.622Z,1.48
2018-12-04T03:10:27.818Z,2.05
2018-12-04T03:12:57.523Z,1.83
2018-12-04T03:15:26.239Z,1.90
2018-12-04T03:17:55.539Z,1.30
2018-12-04T03:20:24.049Z,2.22
2018-12-04T03:22:52.807Z,2.20
2018-12-04T03:25:21.464Z,1.50
2018-12-04T03:27:49.719Z,1.70
2018-12-04T03:30:19.361Z,1.90
2018-12-04T03:32:50.901Z,1.90
2018-12-04T03:35:20.212Z,1.77
2018-12-04T03:37:49.808Z,1.70
2018-12-04T03:40:19.232Z,1.27
2018-12-04T03:42:47.355Z,2.10
2018-12-04T03:45:18.886Z,1.77
2018-12-04T03:47:47.703Z,1.60
2018-12-04T03:50:17.179Z,2.00
2018-12-04T03:52:45.610Z,2.05
2018-12-04T03:55:16.181Z,1.80
2018-12-04T03:57:45.656Z,1.70
2018-12-04T04:00:14.089Z,1.70
2018-12-04T04:02:50.201Z,1.60
2018-12-04T04:05:21.653Z,2.10
2018-12-04T04:07:50.440Z,2.05
2018-12-04T04:10:19.245Z,1.62
2018-12-04T04:12:48.131Z,2.15
2018-12-04T04:15:17.811Z,1.77
2018-12-04T04:17:48.141Z,2.10
2018-12-04T04:20:17.528Z,1.60
2018-12-04T04:22:47.028Z,1.80
2018-12-04T04:25:17.618Z,1.65
2018-12-04T04:27:47.033Z,2.60
2018-12-04T04:30:15.628Z,2.33
2018-12-04T04:32:45.761Z,1.50
2018-12-04T04:35:15.015Z,1.98
2018-12-04T04:37:43.110Z,2.45
2018-12-04T04:40:13.515Z,1.70
2018-12-04T04:42:42.455Z,1.77
2018-12-04T04:45:11.348Z,1.60
2018-12-04T04:47:39.203Z,1.98
2018-12-04T04:50:07.168Z,1.92
2018-12-04T04:52:35.547Z,2.05
2018-12-04T04:55:05.977Z,1.90
2018-12-04T04:57:34.159Z,2.15
2018-12-04T05:00:04.020Z,1.23
2018-12-04T05:02:34.604Z,1.60
2018-12-04T05:05:02.843Z,2.05
2018-12-04T05:07:32.544Z,1.73
2018-12-04T05:10:03.441Z,1.85
2018-12-04T05:12:31.622Z,1.70
2018-12-04T05:15:02.479Z,1.90
2018-12-04T05:17:35.052Z,1.40
2018-12-04T05:20:04.153Z,2.25
2018-12-04T05:22:33.298Z,1.42
2018-12-04T05:25:03.013Z,1.73
2018-12-04T05:27:32.674Z,3.05
2018-12-04T05:30:00.955Z,2.17
2018-12-04T05:32:30.837Z,1.70
2018-12-04T05:34:58.972Z,1.67
2018-12-04T05:37:27.860Z,2.10
2018-12-04T05:39:57.585Z,1.40
2018-12-04T05:42:25.711Z,2.00
2018-12-04T05:44:55.307Z,1.92
2018-12-04T05:47:24.129Z,1.48
2018-12-04T05:49:52.594Z,1.85
2018-12-04T05:52:22.728Z,1.62
2018-12-04T05:54:54.470Z,1.90
2018-12-04T05:57:23.333Z,1.60
2018-12-04T05:59:53.250Z,2.15
2018-12-04T06:02:21.893Z,1.60
2018-12-04T06:04:51.734Z,2.17
2018-12-04T06:07:21.260Z,2.12
2018-12-04T06:09:50.932Z,1.90
2018-12-04T06:12:18.725Z,2.12
2018-12-04T06:14:47.349Z,2.42
2018-12-04T06:17:17.042Z,1.75
2018-12-04T06:19:45.988Z,2.05
2018-12-04T06:22:14.126Z,1.95
2018-12-04T06:24:44.044Z,1.80
2018-12-04T06:27:12.461Z,2.20
2018-12-04T06:29:40.755Z,1.67
2018-12-04T06:32:10.385Z,2.03
2018-12-04T06:34:40.187Z,2.42
2018-12-04T06:37:08.621Z,1.60
2018-12-04T06:39:38.525Z,1.67
2018-12-04T06:42:08.878Z,1.90
2018-12-04T06:44:38.769Z,1.80
2018-12-04T06:47:10.688Z,2.00
2018-12-04T06:49:39.647Z,2.17
2018-12-04T06:52:07.813Z,1.70
2018-12-04T06:54:35.895Z,1.70
2018-12-04T06:57:03.752Z,2.17
2018-12-04T06:59:32.996Z,1.62
2018-12-04T07:02:02.944Z,1.65
2018-12-04T07:04:32.534Z,2.25
2018-12-04T07:07:02.624Z,2.00
2018-12-04T07:09:31.816Z,1.95
2018-12-04T07:12:02.604Z,2.47
2018-12-04T07:14:29.313Z,1.98
2018-12-04T07:16:57.994Z,2.50
2018-12-04T07:19:28.177Z,3.28
2018-12-04T07:21:57.246Z,2.40
2018-12-04T07:24:25.929Z,2.12
2018-12-04T07:26:56.286Z,1.98
2018-12-04T07:29:26.335Z,1.98
2018-12-04T07:31:56.232Z,3.47
2018-12-04T07:34:23.996Z,2.53
2018-12-04T07:36:52.148Z,1.73
2018-12-04T07:39:22.407Z,3.00
2018-12-04T07:41:55.600Z,2.45
2018-12-04T07:44:26.688Z,2.00
2018-12-04T07:46:55.607Z,2.58
2018-12-04T07:49:23.905Z,2.20
2018-12-04T07:51:53.616Z,2.00
2018-12-04T07:54:24.459Z,1.85
2018-12-04T07:56:53.568Z,2.50
2018-12-04T07:59:21.834Z,2.78
2018-12-04T08:01:49.614Z,2.37
2018-12-04T08:04:19.104Z,2.67
2018-12-04T08:06:48.584Z,2.58
2018-12-04T08:09:17.705Z,3.72
2018-12-04T08:11:46.623Z,2.62
2018-12-04T08:14:15.067Z,2.78
2018-12-04T08:16:42.631Z,2.30
2018-12-04T08:19:11.961Z,2.35
2018-12-04T08:21:40.059Z,2.30
2018-12-04T08:24:08.121Z,2.22
2018-12-04T08:26:38.278Z,2.40
2018-12-04T08:29:06.670Z,1.80
2018-12-04T08:31:35.231Z,1.73
2018-12-04T08:34:05.217Z,2.33
2018-12-04T08:36:33.656Z,2.08
2018-12-04T08:39:03.481Z,2.62
2018-12-04T08:41:32.339Z,1.92
2018-12-04T08:44:03.287Z,1.98
2018-12-04T08:46:33.218Z,2.10
2018-12-04T08:49:01.396Z,2.40
2018-12-04T08:51:29.590Z,1.95
2018-12-04T08:53:58.716Z,2.42
2018-12-04T08:56:28.755Z,2.03
2018-12-04T08:58:57.979Z,2.37
2018-12-04T09:01:26.219Z,1.98
2018-12-04T09:03:59.201Z,2.62
2018-12-04T09:06:24.235Z,1.85
2018-12-04T09:08:55.795Z,2.05
2018-12-04T09:11:24.205Z,2.83
2018-12-04T09:13:54.433Z,2.05
2018-12-04T09:16:23.467Z,1.87
2018-12-04T09:18:50.622Z,2.05
2018-12-04T09:21:19.951Z,2.35
2018-12-04T09:23:48.746Z,2.22
2018-12-04T09:26:17.042Z,2.90
2018-12-04T09:28:45.138Z,2.37
2018-12-04T09:31:16.459Z,2.00
2018-12-04T09:33:44.505Z,2.00
2018-12-04T09:36:13.481Z,1.83
2018-12-04T09:38:41.590Z,2.50
2018-12-04T09:41:09.775Z,2.37
2018-12-04T09:43:38.891Z,2.28
2018-12-04T09:46:09.191Z,2.25
2018-12-04T09:48:39.824Z,2.33
2018-12-04T09:51:09.477Z,2.30
2018-12-04T09:53:43.201Z,2.65
2018-12-04T09:56:13.881Z,2.28
2018-12-04T09:58:43.916Z,3.03
2018-12-04T10:01:14.390Z,2.45
2018-12-04T10:03:44.875Z,2.83
2018-12-04T10:06:14.938Z,2.58
2018-12-04T10:08:43.841Z,2.50
2018-12-04T10:11:14.546Z,2.60
2018-12-04T10:13:45.300Z,2.10
2018-12-04T10:16:13.426Z,2.78
2018-12-04T10:18:47.650Z,2.30
2018-12-04T10:21:12.575Z,2.42
2018-12-04T10:23:40.626Z,2.08
2018-12-04T10:26:19.113Z,2.25
2018-12-04T10:29:02.509Z,2.50
2018-12-04T10:31:46.382Z,2.05
2018-12-04T10:34:14.583Z,1.80
2018-12-04T10:36:44.213Z,1.98
2018-12-04T10:39:13.878Z,2.40
2018-12-04T10:41:42.057Z,1.92
2018-12-04T10:44:10.677Z,1.98
2018-12-04T10:46:39.298Z,1.83
2018-12-04T10:49:07.992Z,1.85
2018-12-04T10:51:37.672Z,2.22
2018-12-04T10:54:07.478Z,2.37
2018-12-04T10:56:36.564Z,2.28
2018-12-04T10:59:04.602Z,2.58
2018-12-04T11:01:50.427Z,2.20
2018-12-04T11:04:20.803Z,2.40
2018-12-04T11:06:48.562Z,2.30
2018-12-04T11:09:17.297Z,2.42
2018-12-04T11:11:45.753Z,1.87
2018-12-04T11:14:15.353Z,2.12
2018-12-04T11:16:47.295Z,1.67
2018-12-04T11:19:17.280Z,1.67
2018-12-04T11:21:47.670Z,1.90
2018-12-04T11:24:16.985Z,2.60
2018-12-04T11:26:45.024Z,1.95
2018-12-04T11:29:14.535Z,2.03
2018-12-04T11:31:45.362Z,1.95
2018-12-04T11:34:13.641Z,2.12
2018-12-04T11:36:42.231Z,2.03
2018-12-04T11:39:12.894Z,1.92
2018-12-04T11:41:42.488Z,1.83
2018-12-04T11:44:14.599Z,1.67
2018-12-04T11:46:44.110Z,1.67
2018-12-04T11:49:13.283Z,2.15
2018-12-04T11:51:42.246Z,1.58
2018-12-04T11:54:10.098Z,1.80
2018-12-04T11:56:39.794Z,1.40
2018-12-04T11:59:09.164Z,1.95
2018-12-04T12:01:37.266Z,1.70
2018-12-04T12:04:06.832Z,1.85
2018-12-04T12:06:37.213Z,1.50
2018-12-04T12:09:08.076Z,2.53
2018-12-04T12:11:38.099Z,1.60
2018-12-04T12:14:07.764Z,1.83
2018-12-04T12:16:39.082Z,1.60
2018-12-04T12:19:07.161Z,1.40
2018-12-04T12:21:35.041Z,1.17
2018-12-04T12:24:04.656Z,1.67
2018-12-04T12:26:33.780Z,2.58
2018-12-04T12:29:03.358Z,2.75
2018-12-04T12:31:33.662Z,2.22
2018-12-04T12:34:01.488Z,2.00
2018-12-04T12:36:33.151Z,1.83
2018-12-04T12:39:01.281Z,2.00
2018-12-04T12:41:31.352Z,1.98
2018-12-04T12:43:59.486Z,2.20
2018-12-04T12:46:27.593Z,2.00
2018-12-04T12:48:56.576Z,2.53
2018-12-04T12:51:26.336Z,2.30
2018-12-04T12:53:56.487Z,2.10
2018-12-04T12:56:24.914Z,2.08
2018-12-04T12:58:55.229Z,1.65
2018-12-04T13:01:23.028Z,1.80
2018-12-04T13:03:52.547Z,2.12
2018-12-04T13:06:22.831Z,1.70
2018-12-04T13:08:52.578Z,1.92
2018-12-04T13:11:24.710Z,1.70
2018-12-04T13:13:54.005Z,2.12
2018-12-04T13:16:22.212Z,2.17
2018-12-04T13:18:50.354Z,2.25
2018-12-04T13:21:18.485Z,2.70
2018-12-04T13:23:47.042Z,2.17
2018-12-04T13:26:16.095Z,2.37
2018-12-04T13:28:45.294Z,3.17
2018-12-04T13:31:13.424Z,2.53
2018-12-04T13:33:42.310Z,2.55
2018-12-04T13:36:11.567Z,1.98
2018-12-04T13:38:40.504Z,2.05
2018-12-04T13:41:10.661Z,2.33
2018-12-04T13:43:38.413Z,2.08
2018-12-04T13:46:08.781Z,1.98
2018-12-04T13:48:37.611Z,2.12
2018-12-04T13:51:07.650Z,2.45
2018-12-04T13:53:37.653Z,1.65
2018-12-04T13:56:07.616Z,1.73
2018-12-04T13:58:36.662Z,2.15
2018-12-04T14:01:06.921Z,2.08
2018-12-04T14:03:36.731Z,2.50
2018-12-04T14:06:06.155Z,2.20
2018-12-04T14:08:38.400Z,1.92
2018-12-04T14:11:07.841Z,2.17
2018-12-04T14:13:37.107Z,2.08
2018-12-04T14:16:05.780Z,2.22
2018-12-04T14:18:34.408Z,2.00
2018-12-04T14:21:07.143Z,1.85
2018-12-04T14:23:37.671Z,2.12
2018-12-04T14:26:06.379Z,2.37
2018-12-04T14:28:35.246Z,2.78
2018-12-04T14:31:04.269Z,2.50
2018-12-04T14:33:34.465Z,2.35
2018-12-04T14:36:04.050Z,2.05
2018-12-04T14:38:32.357Z,1.70
2018-12-04T14:41:01.345Z,1.85
2018-12-04T14:43:29.488Z,1.90
2018-12-04T14:46:02.259Z,1.85
2018-12-04T14:48:30.621Z,2.20
2018-12-04T14:51:02.744Z,2.37
2018-12-04T14:53:32.660Z,2.62
2018-12-04T14:56:02.177Z,2.65
2018-12-04T14:58:31.053Z,2.97
2018-12-04T15:01:01.288Z,1.85
2018-12-04T15:03:29.443Z,2.75
2018-12-04T15:05:59.243Z,2.50
2018-12-04T15:08:27.498Z,2.95
2018-12-04T15:10:55.865Z,3.28
2018-12-04T15:13:23.719Z,3.62
2018-12-04T15:15:53.486Z,3.20
2018-12-04T15:18:23.610Z,2.75
2018-12-04T15:20:51.527Z,2.80
2018-12-04T15:23:20.578Z,2.58
2018-12-04T15:25:50.050Z,3.47
2018-12-04T15:28:19.953Z,2.85
2018-12-04T15:30:49.884Z,2.80
2018-12-04T15:33:19.644Z,2.67
2018-12-04T15:35:47.592Z,2.62
2018-12-04T15:38:18.478Z,2.87
2018-12-04T15:40:46.583Z,3.35
2018-12-04T15:43:16.177Z,5.07
2018-12-04T15:45:46.235Z,2.95
2018-12-04T15:48:14.308Z,2.90
2018-12-04T15:50:43.874Z,4.43
2018-12-04T15:53:11.898Z,4.37
2018-12-04T15:55:42.043Z,2.87
2018-12-04T15:58:10.595Z,3.50
2018-12-04T16:00:39.990Z,3.72
2018-12-04T16:03:07.980Z,3.20
2018-12-04T16:05:38.144Z,3.53
2018-12-04T16:08:06.404Z,3.50
2018-12-04T16:10:34.425Z,3.47
2018-12-04T16:13:02.257Z,4.20
2018-12-04T16:15:31.881Z,4.32
2018-12-04T16:17:59.895Z,3.72
2018-12-04T16:20:28.197Z,3.28
2018-12-04T16:22:58.208Z,3.30
2018-12-04T16:25:28.318Z,2.62
2018-12-04T16:27:57.954Z,2.30
2018-12-04T16:30:26.517Z,2.92
2018-12-04T16:32:54.542Z,3.08
2018-12-04T16:35:23.709Z,3.28
2018-12-04T16:37:53.289Z,2.87
2018-12-04T16:40:22.816Z,3.33
2018-12-04T16:42:52.076Z,3.12
2018-12-04T16:45:21.948Z,3.37
2018-12-04T16:47:49.976Z,3.85
2018-12-04T16:50:17.717Z,3.40
2018-12-04T16:52:45.744Z,3.33
2018-12-04T16:55:15.142Z,3.00
2018-12-04T16:57:43.158Z,3.72
2018-12-04T17:00:11.191Z,3.67
2018-12-04T17:02:39.215Z,3.75
2018-12-04T17:05:07.205Z,4.00
2018-12-04T17:07:36.183Z,3.67
2018-12-04T17:10:04.845Z,3.08
2018-12-04T17:12:34.383Z,3.83
2018-12-04T17:15:02.767Z,3.30
2018-12-04T17:17:32.256Z,3.15
2018-12-04T17:20:00.294Z,3.70
2018-12-04T17:22:28.926Z,3.80
2018-12-04T17:24:59.031Z,3.62
2018-12-04T17:27:27.247Z,3.83
2018-12-04T17:29:55.285Z,3.67
2018-12-04T17:32:23.310Z,4.15
2018-12-04T17:34:51.327Z,6.10
2018-12-04T17:37:20.575Z,4.47
2018-12-04T17:39:48.594Z,4.40
2018-12-04T17:42:16.331Z,4.45
2018-12-04T17:44:44.368Z,4.30
2018-12-04T17:47:12.838Z,5.80
2018-12-04T17:49:42.456Z,5.72
2018-12-04T17:52:09.969Z,4.07
2018-12-04T17:54:37.956Z,4.47
2018-12-04T17:57:08.001Z,3.75
2018-12-04T17:59:36.044Z,5.62
2018-12-04T18:02:04.054Z,4.95
2018-12-04T18:04:32.064Z,6.55
2018-12-04T18:07:00.106Z,5.30
2018-12-04T18:09:28.086Z,5.00
2018-12-04T18:11:56.676Z,4.32
2018-12-04T18:14:24.754Z,5.68
2018-12-04T18:16:52.750Z,4.30
2018-12-04T18:19:21.329Z,4.95
2018-12-04T18:21:49.345Z,4.25
2018-12-04T18:24:18.591Z,4.00
2018-12-04T18:26:46.617Z,4.18
2018-12-04T18:29:16.198Z,4.75
2018-12-04T18:31:45.831Z,8.05
2018-12-04T18:34:13.851Z,5.87
2018-12-04T18:36:41.932Z,6.03
2018-12-04T18:39:11.525Z,4.50
2018-12-04T18:41:40.045Z,5.30
2018-12-04T18:44:09.409Z,4.55
2018-12-04T18:46:37.326Z,4.62
2018-12-04T18:49:05.354Z,3.78
2018-12-04T18:51:33.464Z,3.67
2018-12-04T18:54:01.708Z,3.65
2018-12-04T18:56:30.248Z,4.57
2018-12-04T18:58:59.817Z,3.47
2018-12-04T19:01:27.957Z,4.30
2018-12-04T19:03:57.680Z,4.53
2018-12-04T19:06:25.666Z,5.60
2018-12-04T19:08:55.237Z,4.70
2018-12-04T19:11:23.223Z,4.00
2018-12-04T19:13:51.476Z,4.07
2018-12-04T19:16:20.078Z,9.00
2018-12-04T19:18:48.628Z,5.47
2018-12-04T19:21:18.568Z,5.20
2018-12-04T19:23:47.893Z,5.40
2018-12-04T19:26:15.887Z,5.93
2018-12-04T19:28:43.892Z,6.30
2018-12-04T19:31:13.514Z,5.53
2018-12-04T19:33:43.139Z,5.72
2018-12-04T19:36:12.743Z,6.40
2018-12-04T19:38:40.514Z,6.75
2018-12-04T19:41:09.079Z,9.77
2018-12-04T19:43:37.076Z,6.62
2018-12-04T19:46:07.140Z,6.85
2018-12-04T19:48:35.139Z,7.05
2018-12-04T19:51:04.925Z,6.40
2018-12-04T19:53:33.019Z,4.32
2018-12-04T19:56:01.554Z,4.53
2018-12-04T19:58:29.717Z,5.70
2018-12-04T20:00:57.749Z,6.12
2018-12-04T20:03:27.419Z,7.20
2018-12-04T20:05:55.159Z,7.53
2018-12-04T20:08:24.703Z,5.90
2018-12-04T20:10:54.240Z,5.03
2018-12-04T20:13:22.561Z,3.12
2018-12-04T20:15:50.594Z,5.05
2018-12-04T20:18:20.093Z,4.97
2018-12-04T20:20:47.856Z,4.87
2018-12-04T20:23:17.537Z,5.67
2018-12-04T20:25:47.673Z,5.80
2018-12-04T20:28:15.707Z,5.35
2018-12-04T20:30:44.207Z,6.07
2018-12-04T20:33:12.195Z,6.90
2018-12-04T20:35:42.047Z,6.43
2018-12-04T20:38:09.739Z,6.35
2018-12-04T20:40:37.759Z,10.07
2018-12-04T20:43:07.286Z,7.32
2018-12-04T20:45:36.849Z,5.68
2018-12-04T20:48:04.815Z,5.12
2018-12-04T20:50:32.821Z,6.00
2018-12-04T20:53:02.665Z,5.75
2018-12-04T20:55:30.789Z,6.75
2018-12-04T20:57:58.810Z,6.72
2018-12-04T21:00:26.910Z,6.65
2018-12-04T21:02:55.174Z,6.60
2018-12-04T21:05:24.704Z,7.10
2018-12-04T21:07:53.988Z,8.23
2018-12-04T21:10:22.029Z,7.12
2018-12-04T21:12:50.371Z,7.37
2018-12-04T21:15:20.545Z,7.28
2018-12-04T21:17:51.228Z,7.07
2018-12-04T21:20:20.833Z,7.22
2018-12-04T21:22:48.876Z,7.60
2018-12-04T21:25:18.380Z,6.62
2018-12-04T21:28:04.217Z,5.95
2018-12-04T21:30:49.668Z,5.73
2018-12-04T21:33:35.490Z,5.40
2018-12-04T21:36:40.699Z,5.40
2018-12-04T21:39:27.001Z,5.93
2018-12-04T21:41:58.793Z,6.43
2018-12-04T21:44:57.708Z,6.37
2018-12-04T21:47:43.555Z,7.53
2018-12-04T21:50:12.053Z,6.53
2018-12-04T21:52:41.357Z,7.18
2018-12-04T21:55:09.387Z,7.03
2018-12-04T21:57:37.754Z,7.18
2018-12-04T22:00:07.375Z,7.00
2018-12-04T22:02:35.412Z,8.02
2018-12-04T22:05:04.952Z,5.27
2018-12-04T22:07:34.436Z,6.20
2018-12-04T22:10:02.200Z,5.55
2018-12-04T22:12:30.579Z,6.50
2018-12-04T22:14:58.844Z,7.65
2018-12-04T22:17:26.877Z,7.60
2018-12-04T22:19:54.996Z,8.18
2018-12-04T22:22:24.511Z,8.70
2018-12-04T22:24:52.527Z,7.50
2018-12-04T22:27:20.567Z,7.18
2018-12-04T22:29:48.791Z,7.37
2018-12-04T22:32:16.976Z,8.20
2018-12-04T22:34:44.889Z,9.48
2018-12-04T22:37:14.698Z,9.77
2018-12-04T22:39:43.000Z,8.60
2018-12-04T22:42:11.337Z,8.00
2018-12-04T22:44:39.115Z,7.47
2018-12-04T22:47:07.594Z,7.50
2018-12-04T22:49:36.235Z,7.55
2018-12-04T22:52:04.272Z,6.85
2018-12-04T22:54:33.825Z,7.15
2018-12-04T22:57:03.411Z,7.00
2018-12-04T22:59:31.950Z,7.28
2018-12-04T23:02:00.280Z,7.20
2018-12-04T23:04:28.308Z,7.12
2018-12-04T23:06:56.338Z,6.15
2018-12-04T23:09:24.303Z,5.97
2018-12-04T23:11:52.372Z,6.43
2018-12-04T23:14:20.350Z,7.00
2018-12-04T23:16:49.876Z,5.72
2018-12-04T23:19:19.593Z,6.80
2018-12-04T23:21:47.283Z,6.43
2018-12-04T23:24:15.287Z,6.78
2018-12-04T23:26:43.467Z,6.97
2018-12-04T23:29:12.985Z,7.03
2018-12-04T23:31:41.160Z,6.12
2018-12-04T23:34:09.236Z,6.53
2018-12-04T23:36:37.251Z,5.93
2018-12-04T23:39:07.677Z,6.45
2018-12-04T23:41:37.275Z,6.03
2018-12-04T23:44:05.295Z,6.07
2018-12-04T23:46:33.314Z,8.38
2018-12-04T23:49:01.352Z,6.53
2018-12-04T23:51:30.991Z,6.75
2018-12-04T23:53:59.029Z,6.22
2018-12-04T23:56:27.097Z,7.03
2018-12-04T23:58:55.093Z,6.37
